createdAt,value
2023-05-24T00:00:34.275Z,23.2
2023-05-24T00:15:33.047Z,23.2
2023-05-24T00:30:33.702Z,23.2
2023-05-24T00:45:33.888Z,23.1
2023-05-24T01:00:33.879Z,23.1
2023-05-24T01:15:33.924Z,23.1
2023-05-24T01:30:33.810Z,23.1
2023-05-24T01:45:33.781Z,23.0
2023-05-24T02:00:33.192Z,23
2023-05-24T02:15:33.701Z,23
2023-05-24T02:30:33.228Z,22.9
2023-05-24T02:45:32.686Z,22.9
2023-05-24T03:00:33.639Z,22.9
2023-05-24T03:15:33.660Z,22.9
2023-05-24T03:30:33.941Z,22.9
2023-05-24T03:45:38.966Z,22.8
2023-05-24T04:00:33.965Z,22.8
2023-05-24T04:15:34.068Z,22.8
2023-05-24T04:30:33.411Z,22.8
2023-05-24T04:45:33.776Z,22.7
2023-05-24T05:00:33.832Z,22.7
2023-05-24T05:15:33.270Z,22.7
2023-05-24T05:30:33.784Z,22.7
2023-05-24T05:45:33.981Z,22.8
2023-05-24T06:00:33.776Z,22.9
2023-05-24T06:15:33.102Z,23.0
2023-05-24T06:30:33.767Z,23
2023-05-24T06:45:33.169Z,23.1
2023-05-24T07:00:33.472Z,23.2
2023-05-24T07:15:33.821Z,23.2
2023-05-24T07:30:33.696Z,23.3
2023-05-24T07:45:33.666Z,23.4
2023-05-24T08:00:34.119Z,23.4
2023-05-24T08:15:32.849Z,23.5
2023-05-24T08:30:33.850Z,23.5
2023-05-24T08:45:33.408Z,23.5
2023-05-24T09:00:33.350Z,23.5
2023-05-24T09:15:33.591Z,23.6
2023-05-24T09:30:33.484Z,23.6
2023-05-24T09:45:33.432Z,23.6
2023-05-24T10:00:33.826Z,23.6
2023-05-24T10:15:33.617Z,23.6
2023-05-24T10:30:33.465Z,23.6
2023-05-24T10:45:32.982Z,23.6
2023-05-24T11:00:35.969Z,23.6
2023-05-24T11:15:33.778Z,23.6
2023-05-24T11:30:33.755Z,23.6
2023-05-24T11:45:33.802Z,23.7
2023-05-24T12:00:34.310Z,23.7
2023-05-24T12:15:33.330Z,23.7
2023-05-24T12:30:34.319Z,23.7
2023-05-24T12:45:33.824Z,23.7
2023-05-24T13:00:34.280Z,23.7
2023-05-24T13:15:33.693Z,23.7
2023-05-24T13:30:33.964Z,23.7
2023-05-24T13:45:33.634Z,23.8
2023-05-24T14:00:33.390Z,23.8
2023-05-24T14:15:34.211Z,23.8
2023-05-24T14:30:33.525Z,23.8
2023-05-24T14:45:33.337Z,23.8
2023-05-24T15:00:33.227Z,23.7
2023-05-24T15:15:33.859Z,23.7
2023-05-24T15:30:34.075Z,23.7
2023-05-24T15:45:33.286Z,23.7
2023-05-24T16:00:34.588Z,23.7
2023-05-24T16:15:33.649Z,23.7
2023-05-24T16:30:33.623Z,23.7
2023-05-24T16:45:33.705Z,23.7
2023-05-24T17:00:34.248Z,23.7
2023-05-24T17:15:34.064Z,23.7
2023-05-24T17:30:33.350Z,23.7
2023-05-24T17:45:34.494Z,23.6
2023-05-24T18:00:34.165Z,23.6
2023-05-24T18:15:33.908Z,23.5
2023-05-24T18:30:33.709Z,23.5
2023-05-24T18:45:34.275Z,23.4
2023-05-24T19:00:34.729Z,23.4
2023-05-24T19:15:34.760Z,23.3
2023-05-24T19:30:33.521Z,23.3
2023-05-24T19:45:33.958Z,23.3
2023-05-24T20:00:33.731Z,23.2
2023-05-24T20:15:33.545Z,23.1
2023-05-24T20:30:34.146Z,23.1
2023-05-24T20:45:34.492Z,23.1
2023-05-24T21:00:33.138Z,23.0
2023-05-24T21:15:34.072Z,23
2023-05-24T21:30:33.428Z,22.9
2023-05-24T21:45:35.573Z,22.9
2023-05-24T22:00:33.628Z,22.8
2023-05-24T22:15:33.599Z,22.8
2023-05-24T22:30:33.069Z,22.7
2023-05-24T22:45:33.103Z,22.7
2023-05-24T23:00:33.824Z,22.7
2023-05-24T23:15:33.720Z,22.6
2023-05-24T23:30:33.604Z,22.6
2023-05-24T23:45:33.644Z,22.6
